createdAt,value
2018-04-24T00:01:16.049Z,60.11
2018-04-24T00:03:44.332Z,59.02
2018-04-24T00:06:12.606Z,59.47
2018-04-24T00:08:40.863Z,59.43
2018-04-24T00:11:09.875Z,59.41
2018-04-24T00:13:38.924Z,59.74
2018-04-24T00:16:07.171Z,59.50
2018-04-24T00:18:36.200Z,59.52
2018-04-24T00:21:04.474Z,59.83
2018-04-24T00:23:33.515Z,59.69
2018-04-24T00:26:01.826Z,59.59
2018-04-24T00:28:30.094Z,59.50
2018-04-24T00:30:58.342Z,59.86
2018-04-24T00:33:26.619Z,60.13
2018-04-24T00:35:54.884Z,59.78
2018-04-24T00:38:23.144Z,60.14
2018-04-24T00:40:51.428Z,59.91
2018-04-24T00:43:19.709Z,60.48
2018-04-24T00:45:48.769Z,60.32
2018-04-24T00:48:17.005Z,60.52
2018-04-24T00:50:46.079Z,60.88
2018-04-24T00:53:32.068Z,61.26
2018-04-24T00:56:00.360Z,62.26
2018-04-24T00:58:28.638Z,62.83
2018-04-24T01:00:56.911Z,62.72
2018-04-24T01:03:25.183Z,62.02
2018-04-24T01:05:53.448Z,61.90
2018-04-24T01:08:21.725Z,60.96
2018-04-24T01:10:50.017Z,61.08
2018-04-24T01:13:19.043Z,61.55
2018-04-24T01:15:48.149Z,62.38
2018-04-24T01:18:16.477Z,62.26
2018-04-24T01:20:44.771Z,62.63
2018-04-24T01:23:13.032Z,62.31
2018-04-24T01:25:42.097Z,62.49
2018-04-24T01:28:11.126Z,62.40
2018-04-24T01:30:39.444Z,62.40
2018-04-24T01:33:08.508Z,62.75
2018-04-24T01:35:36.768Z,62.56
2018-04-24T01:38:05.044Z,62.80
2018-04-24T01:40:33.349Z,62.58
2018-04-24T01:43:01.728Z,62.77
2018-04-24T01:45:30.745Z,63.23
2018-04-24T01:47:59.028Z,63.15
2018-04-24T01:50:28.046Z,63.37
2018-04-24T01:52:56.330Z,63.41
2018-04-24T01:55:24.599Z,63.23
2018-04-24T01:57:53.625Z,63.70
2018-04-24T02:00:21.899Z,64.45
2018-04-24T02:02:50.171Z,63.62
2018-04-24T02:05:18.427Z,64.07
2018-04-24T02:07:46.792Z,64.39
2018-04-24T02:10:15.055Z,64.96
2018-04-24T02:12:44.089Z,65.24
2018-04-24T02:15:12.367Z,64.76
2018-04-24T02:17:40.640Z,64.78
2018-04-24T02:20:09.683Z,64.97
2018-04-24T02:22:37.974Z,64.88
2018-04-24T02:25:06.261Z,64.96
2018-04-24T02:27:34.455Z,64.96
2018-04-24T02:30:02.713Z,64.99
2018-04-24T02:32:31.779Z,65.40
2018-04-24T02:35:00.045Z,65.38
2018-04-24T02:37:28.313Z,65.70
2018-04-24T02:39:56.607Z,65.84
2018-04-24T02:42:24.854Z,65.82
2018-04-24T02:44:53.137Z,65.93
2018-04-24T02:47:21.395Z,65.98
2018-04-24T02:49:49.643Z,65.48
2018-04-24T02:52:18.691Z,65.67
2018-04-24T02:54:46.966Z,65.92
2018-04-24T02:57:15.221Z,65.81
2018-04-24T02:59:44.291Z,65.90
2018-04-24T03:02:12.601Z,65.93
2018-04-24T03:04:40.873Z,66.34
2018-04-24T03:07:09.177Z,66.26
2018-04-24T03:09:38.258Z,66.60
2018-04-24T03:12:06.512Z,66.17
2018-04-24T03:14:35.531Z,66.22
2018-04-24T03:17:03.792Z,66.69
2018-04-24T03:19:32.057Z,66.32
2018-04-24T03:22:00.306Z,66.48
2018-04-24T03:24:28.580Z,66.16
2018-04-24T03:26:57.678Z,66.40
2018-04-24T03:29:25.853Z,66.26
2018-04-24T03:31:54.131Z,66.29
2018-04-24T03:34:22.409Z,66.12
2018-04-24T03:36:50.673Z,66.38
2018-04-24T03:39:18.955Z,66.41
2018-04-24T03:41:47.259Z,66.41
2018-04-24T03:44:15.510Z,66.38
2018-04-24T03:46:44.583Z,66.65
2018-04-24T03:49:13.040Z,66.58
2018-04-24T03:51:41.308Z,66.88
2018-04-24T03:54:10.444Z,66.96
2018-04-24T03:56:38.729Z,66.85
2018-04-24T03:59:06.975Z,66.98
2018-04-24T04:01:35.427Z,67.45
2018-04-24T04:04:03.677Z,67.66
2018-04-24T04:06:32.809Z,67.52
2018-04-24T04:09:01.100Z,67.40
2018-04-24T04:11:30.114Z,67.24
2018-04-24T04:13:58.392Z,67.22
2018-04-24T04:16:26.654Z,67.51
2018-04-24T04:19:13.422Z,67.79
2018-04-24T04:21:59.565Z,67.65
2018-04-24T04:24:47.727Z,67.41
2018-04-24T04:27:16.039Z,67.19
2018-04-24T04:29:45.142Z,67.52
2018-04-24T04:32:13.463Z,67.15
2018-04-24T04:34:42.505Z,66.72
2018-04-24T04:37:10.763Z,66.49
2018-04-24T04:39:39.037Z,67.22
2018-04-24T04:42:08.080Z,67.22
2018-04-24T04:44:36.360Z,66.96
2018-04-24T04:47:04.650Z,66.43
2018-04-24T04:49:32.936Z,66.25
2018-04-24T04:52:01.186Z,66.82
2018-04-24T04:54:29.448Z,66.88
2018-04-24T04:56:57.719Z,66.11
2018-04-24T04:59:25.967Z,65.95
2018-04-24T05:01:55.045Z,66.01
2018-04-24T05:04:23.350Z,65.99
2018-04-24T05:06:51.621Z,65.65
2018-04-24T05:09:19.883Z,65.13
2018-04-24T05:11:48.171Z,65.76
2018-04-24T05:14:16.577Z,65.54
2018-04-24T05:16:44.957Z,64.89
2018-04-24T05:19:13.247Z,64.91
2018-04-24T05:21:41.504Z,64.79
2018-04-24T05:24:10.546Z,65.01
2018-04-24T05:26:38.894Z,65.08
2018-04-24T05:29:07.854Z,64.58
2018-04-24T05:31:36.104Z,64.77
2018-04-24T05:34:05.531Z,66.49
2018-04-24T05:36:33.792Z,64.35
2018-04-24T05:39:02.056Z,64.28
2018-04-24T05:41:30.324Z,64.38
2018-04-24T05:43:58.580Z,64.05
2018-04-24T05:46:27.611Z,63.67
2018-04-24T05:48:55.896Z,63.74
2018-04-24T05:51:24.151Z,63.90
2018-04-24T05:53:52.419Z,63.48
2018-04-24T05:56:20.708Z,62.70
2018-04-24T05:58:49.703Z,62.70
2018-04-24T06:01:17.978Z,62.71
2018-04-24T06:03:46.254Z,62.88
2018-04-24T06:06:14.782Z,62.56
2018-04-24T06:08:43.124Z,62.47
2018-04-24T06:11:11.364Z,62.19
2018-04-24T06:13:39.638Z,61.92
2018-04-24T06:16:07.899Z,62.46
2018-04-24T06:18:36.945Z,61.42
2018-04-24T06:21:05.216Z,61.17
2018-04-24T06:23:33.467Z,61.72
2018-04-24T06:26:02.519Z,60.43
2018-04-24T06:28:30.890Z,61.01
2018-04-24T06:30:59.099Z,61.05
2018-04-24T06:33:27.360Z,60.98
2018-04-24T06:35:56.455Z,60.18
2018-04-24T06:38:24.670Z,59.87
2018-04-24T06:40:52.947Z,59.96
2018-04-24T06:43:21.989Z,60.18
2018-04-24T06:45:50.239Z,59.62
2018-04-24T06:48:19.305Z,59.79
2018-04-24T06:50:47.578Z,60.38
2018-04-24T06:53:15.856Z,59.96
2018-04-24T06:55:44.162Z,59.67
2018-04-24T06:58:12.423Z,58.64
2018-04-24T07:00:40.736Z,59.08
2018-04-24T07:03:09.745Z,59.22
2018-04-24T07:05:38.001Z,59.03
2018-04-24T07:08:07.017Z,58.73
2018-04-24T07:10:35.288Z,58.80
2018-04-24T07:13:04.362Z,58.86
2018-04-24T07:15:32.608Z,59.43
2018-04-24T07:18:00.879Z,59.02
2018-04-24T07:20:29.916Z,58.84
2018-04-24T07:22:58.167Z,59.48
2018-04-24T07:25:26.455Z,58.82
2018-04-24T07:27:54.711Z,58.10
2018-04-24T07:30:22.985Z,58.68
2018-04-24T07:32:51.296Z,58.57
2018-04-24T07:35:20.280Z,58.58
2018-04-24T07:37:48.663Z,58.71
2018-04-24T07:40:17.055Z,58.82
2018-04-24T07:42:45.328Z,58.77
2018-04-24T07:45:14.360Z,58.77
2018-04-24T07:47:42.846Z,58.65
2018-04-24T07:50:11.116Z,58.55
2018-04-24T07:52:40.140Z,58.55
2018-04-24T07:55:08.447Z,59.11
2018-04-24T07:57:36.703Z,59.15
2018-04-24T08:00:04.986Z,59.13
2018-04-24T08:02:34.032Z,59.93
2018-04-24T08:05:02.298Z,60.63
2018-04-24T08:07:31.315Z,62.08
2018-04-24T08:09:59.588Z,63.38
2018-04-24T08:12:28.619Z,64.33
2018-04-24T08:14:56.872Z,64.35
2018-04-24T08:17:25.915Z,63.93
2018-04-24T08:19:54.171Z,65.10
2018-04-24T08:22:23.218Z,67.15
2018-04-24T08:24:51.488Z,67.47
2018-04-24T08:27:19.757Z,66.85
2018-04-24T08:29:48.016Z,66.70
2018-04-24T08:32:16.292Z,66.57
2018-04-24T08:34:44.572Z,66.53
2018-04-24T08:37:12.880Z,66.06
2018-04-24T08:39:41.172Z,65.85
2018-04-24T08:42:09.438Z,65.08
2018-04-24T08:44:37.702Z,65.45
2018-04-24T08:47:06.732Z,65.90
2018-04-24T08:49:35.118Z,66.32
2018-04-24T08:52:03.366Z,67.15
2018-04-24T08:54:31.644Z,67.17
2018-04-24T08:56:59.916Z,68.02
2018-04-24T08:59:28.188Z,69.34
2018-04-24T09:01:56.505Z,71.29
2018-04-24T09:04:25.151Z,71.98
2018-04-24T09:06:54.215Z,73.35
2018-04-24T09:09:22.502Z,75.71
2018-04-24T09:11:50.759Z,75.98
2018-04-24T09:14:19.014Z,76.07
2018-04-24T09:16:47.303Z,77.29
2018-04-24T09:19:15.562Z,77.22
2018-04-24T09:21:43.831Z,77.12
2018-04-24T09:24:12.141Z,78.08
2018-04-24T09:26:40.396Z,77.28
2018-04-24T09:29:08.661Z,77.51
2018-04-24T09:31:43.633Z,77.56
2018-04-24T09:34:11.897Z,77.52
2018-04-24T09:36:40.923Z,76.88
2018-04-24T09:39:09.208Z,77.03
2018-04-24T09:41:37.473Z,77.19
2018-04-24T09:44:05.726Z,75.19
2018-04-24T09:46:34.006Z,74.77
2018-04-24T09:49:02.285Z,75.06
2018-04-24T09:51:31.341Z,75.30
2018-04-24T09:53:59.623Z,74.36
2018-04-24T09:56:27.889Z,74.37
2018-04-24T09:58:56.139Z,74.51
2018-04-24T10:01:27.347Z,74.39
2018-04-24T10:03:55.611Z,73.34
2018-04-24T10:06:24.715Z,73.51
2018-04-24T10:08:52.997Z,72.91
2018-04-24T10:11:21.260Z,72.58
2018-04-24T10:13:50.316Z,71.94
2018-04-24T10:16:18.581Z,72.75
2018-04-24T10:18:47.604Z,72.34
2018-04-24T10:21:15.867Z,71.72
2018-04-24T10:23:44.992Z,71.41
2018-04-24T10:26:13.547Z,71.72
2018-04-24T10:28:41.813Z,70.86
2018-04-24T10:31:10.094Z,71.20
2018-04-24T10:33:38.349Z,69.88
2018-04-24T10:36:07.394Z,70.21
2018-04-24T10:38:35.673Z,70.86
2018-04-24T10:41:03.923Z,70.51
2018-04-24T10:43:32.996Z,70.17
2018-04-24T10:46:01.265Z,69.71
2018-04-24T10:48:29.519Z,69.02
2018-04-24T10:50:58.536Z,68.53
2018-04-24T10:53:26.816Z,68.87
2018-04-24T10:55:55.880Z,68.34
2018-04-24T10:58:24.100Z,68.26
2018-04-24T11:00:52.394Z,68.12
2018-04-24T11:03:20.656Z,67.72
2018-04-24T11:05:48.913Z,67.65
2018-04-24T11:08:17.188Z,68.30
2018-04-24T11:10:45.461Z,67.07
2018-04-24T11:13:14.547Z,66.30
2018-04-24T11:15:42.774Z,65.84
2018-04-24T11:18:11.049Z,65.76
2018-04-24T11:20:40.093Z,65.39
2018-04-24T11:23:08.372Z,65.66
2018-04-24T11:25:36.635Z,65.14
2018-04-24T11:28:05.663Z,64.58
2018-04-24T11:30:33.942Z,65.02
2018-04-24T11:33:02.195Z,64.25
2018-04-24T11:35:30.470Z,64.55
2018-04-24T11:37:58.740Z,65.05
2018-04-24T11:40:27.000Z,64.12
2018-04-24T11:42:55.291Z,63.20
2018-04-24T11:45:23.586Z,63.36
2018-04-24T11:47:51.837Z,63.37
2018-04-24T11:50:20.115Z,63.70
2018-04-24T11:52:49.155Z,63.28
2018-04-24T11:55:18.197Z,63.13
2018-04-24T11:57:46.461Z,63.57
2018-04-24T12:00:15.516Z,63.76
2018-04-24T12:02:43.891Z,63.81
2018-04-24T12:05:12.056Z,63.48
2018-04-24T12:07:40.341Z,63.64
2018-04-24T12:10:09.430Z,63.26
2018-04-24T12:12:37.750Z,62.95
2018-04-24T12:15:06.835Z,63.15
2018-04-24T12:17:35.109Z,63.19
2018-04-24T12:20:03.370Z,62.35
2018-04-24T12:22:31.645Z,62.53
2018-04-24T12:24:59.927Z,61.67
2018-04-24T12:27:28.176Z,61.24
2018-04-24T12:29:56.470Z,61.58
2018-04-24T12:32:24.716Z,60.60
2018-04-24T12:34:52.977Z,61.32
2018-04-24T12:37:21.251Z,61.09
2018-04-24T12:39:50.317Z,60.65
2018-04-24T12:42:18.605Z,60.85
2018-04-24T12:44:46.879Z,60.59
2018-04-24T12:47:15.199Z,59.72
2018-04-24T12:49:43.497Z,58.75
2018-04-24T12:52:11.775Z,58.25
2018-04-24T12:54:40.118Z,58.79
2018-04-24T12:57:09.153Z,57.92
2018-04-24T12:59:37.436Z,57.67
2018-04-24T13:02:05.697Z,58.74
2018-04-24T13:04:33.965Z,58.12
2018-04-24T13:07:02.269Z,58.55
2018-04-24T13:09:31.321Z,59.65
2018-04-24T13:11:59.588Z,57.37
2018-04-24T13:14:27.868Z,56.38
2018-04-24T13:16:56.150Z,55.10
2018-04-24T13:19:25.190Z,55.14
2018-04-24T13:21:53.474Z,53.58
2018-04-24T13:24:21.755Z,51.90
2018-04-24T13:26:50.789Z,51.31
2018-04-24T13:29:19.060Z,51.69
2018-04-24T13:31:47.350Z,52.09
2018-04-24T13:34:15.779Z,51.24
2018-04-24T13:36:44.081Z,51.29
2018-04-24T13:39:12.341Z,51.21
2018-04-24T13:41:40.620Z,51.28
2018-04-24T13:44:08.893Z,50.42
2018-04-24T13:46:37.163Z,50.79
2018-04-24T13:49:06.199Z,50.58
2018-04-24T13:51:34.501Z,51.29
2018-04-24T13:54:02.768Z,50.83
2018-04-24T13:56:31.046Z,50.52
2018-04-24T13:59:00.076Z,50.82
2018-04-24T14:01:28.342Z,49.43
2018-04-24T14:03:57.433Z,47.55
2018-04-24T14:06:25.742Z,47.66
2018-04-24T14:08:53.969Z,47.88
2018-04-24T14:11:22.224Z,47.42
2018-04-24T14:13:51.278Z,47.62
2018-04-24T14:16:19.530Z,48.82
2018-04-24T14:18:47.969Z,48.31
2018-04-24T14:21:16.244Z,48.89
2018-04-24T14:23:44.495Z,49.31
2018-04-24T14:26:13.600Z,50.37
2018-04-24T14:28:42.632Z,49.40
2018-04-24T14:31:10.911Z,49.52
2018-04-24T14:33:39.171Z,47.83
2018-04-24T14:36:07.455Z,48.00
2018-04-24T14:38:35.723Z,49.57
2018-04-24T14:41:04.026Z,47.98
2018-04-24T14:43:32.304Z,48.37
2018-04-24T14:46:00.629Z,48.34
2018-04-24T14:48:29.653Z,48.66
2018-04-24T14:50:58.727Z,48.75
2018-04-24T14:53:26.980Z,48.61
2018-04-24T14:55:55.279Z,47.65
2018-04-24T14:58:23.603Z,47.65
2018-04-24T15:00:51.808Z,47.22
2018-04-24T15:03:20.087Z,47.41
2018-04-24T15:05:48.402Z,47.83
2018-04-24T15:08:17.508Z,48.30
2018-04-24T15:10:46.549Z,48.02
2018-04-24T15:13:14.839Z,46.90
2018-04-24T15:15:43.094Z,46.79
2018-04-24T15:18:12.123Z,46.30
2018-04-24T15:20:40.420Z,46.95
2018-04-24T15:23:08.703Z,46.30
2018-04-24T15:25:36.973Z,46.57
2018-04-24T15:28:06.029Z,47.33
2018-04-24T15:30:34.271Z,46.83
2018-04-24T15:33:03.288Z,46.49
2018-04-24T15:35:31.560Z,46.56
2018-04-24T15:37:59.830Z,47.29
2018-04-24T15:40:28.085Z,47.17
2018-04-24T15:42:56.411Z,47.68
2018-04-24T15:45:24.673Z,47.33
2018-04-24T15:47:52.927Z,47.70
2018-04-24T15:50:21.202Z,47.51
2018-04-24T15:52:50.220Z,47.20
2018-04-24T15:55:18.475Z,48.87
2018-04-24T15:57:46.762Z,48.53
2018-04-24T16:00:15.046Z,48.63
2018-04-24T16:02:43.334Z,48.40
2018-04-24T16:05:12.391Z,48.21
2018-04-24T16:07:40.681Z,48.30
2018-04-24T16:10:08.946Z,48.66
2018-04-24T16:12:37.215Z,48.63
2018-04-24T16:15:05.506Z,48.16
2018-04-24T16:17:33.771Z,48.80
2018-04-24T16:20:02.040Z,49.17
2018-04-24T16:22:30.308Z,49.72
2018-04-24T16:24:59.326Z,49.17
2018-04-24T16:27:27.592Z,49.01
2018-04-24T16:29:56.710Z,48.86
2018-04-24T16:32:24.875Z,49.48
2018-04-24T16:34:53.143Z,49.27
2018-04-24T16:37:21.421Z,49.30
2018-04-24T16:39:49.667Z,50.48
2018-04-24T16:42:17.980Z,49.81
2018-04-24T16:44:46.320Z,50.47
2018-04-24T16:47:15.467Z,49.74
2018-04-24T16:49:44.520Z,48.59
2018-04-24T16:52:12.802Z,49.68
2018-04-24T16:54:41.064Z,49.86
2018-04-24T16:57:09.332Z,50.34
2018-04-24T16:59:38.364Z,49.72
2018-04-24T17:02:06.675Z,49.46
2018-04-24T17:04:34.945Z,49.58
2018-04-24T17:07:03.209Z,49.61
2018-04-24T17:09:32.340Z,48.61
2018-04-24T17:12:00.607Z,49.96
2018-04-24T17:14:29.633Z,49.56
2018-04-24T17:16:57.900Z,50.11
2018-04-24T17:19:27.023Z,49.47
2018-04-24T17:21:55.327Z,49.79
2018-04-24T17:24:23.594Z,49.77
2018-04-24T17:26:52.636Z,50.47
2018-04-24T17:29:20.920Z,51.57
2018-04-24T17:31:49.921Z,50.77
2018-04-24T17:34:18.975Z,51.97
2018-04-24T17:36:47.255Z,51.87
2018-04-24T17:39:15.552Z,51.76
2018-04-24T17:41:43.882Z,52.24
2018-04-24T17:44:12.908Z,52.17
2018-04-24T17:46:42.049Z,52.35
2018-04-24T17:49:10.260Z,52.08
2018-04-24T17:51:38.530Z,51.56
2018-04-24T17:54:06.795Z,51.48
2018-04-24T17:56:35.095Z,51.85
2018-04-24T17:59:03.356Z,51.80
2018-04-24T18:01:32.407Z,52.81
2018-04-24T18:04:00.668Z,52.17
2018-04-24T18:06:28.915Z,53.22
2018-04-24T18:08:57.188Z,52.93
2018-04-24T18:11:25.497Z,52.92
2018-04-24T18:13:53.753Z,53.54
2018-04-24T18:16:22.007Z,53.49
2018-04-24T18:18:51.058Z,53.20
2018-04-24T18:21:24.571Z,53.16
2018-04-24T18:23:53.177Z,52.90
2018-04-24T18:26:21.425Z,51.59
2018-04-24T18:28:50.470Z,51.13
2018-04-24T18:31:18.790Z,51.01
2018-04-24T18:33:47.082Z,49.67
2018-04-24T18:36:15.456Z,49.92
2018-04-24T18:38:43.806Z,49.81
2018-04-24T18:41:12.142Z,50.54
2018-04-24T18:43:40.437Z,51.32
2018-04-24T18:46:08.716Z,51.39
2018-04-24T18:48:36.981Z,51.57
2018-04-24T18:51:05.257Z,52.28
2018-04-24T18:53:33.551Z,52.49
2018-04-24T18:56:01.799Z,52.95
2018-04-24T18:58:30.080Z,53.70
2018-04-24T19:00:58.382Z,53.87
2018-04-24T19:03:27.421Z,53.30
2018-04-24T19:05:55.688Z,53.80
2018-04-24T19:08:24.857Z,54.71
2018-04-24T19:10:53.145Z,55.79
2018-04-24T19:13:21.408Z,56.42
2018-04-24T19:15:49.719Z,56.76
2018-04-24T19:18:17.999Z,57.33
2018-04-24T19:20:46.263Z,58.39
2018-04-24T19:23:14.649Z,58.45
2018-04-24T19:25:43.792Z,59.45
2018-04-24T19:28:12.079Z,59.42
2018-04-24T19:30:40.458Z,59.60
2018-04-24T19:33:08.742Z,59.79
2018-04-24T19:35:37.018Z,60.04
2018-04-24T19:38:06.047Z,59.76
2018-04-24T19:40:39.962Z,60.08
2018-04-24T19:43:08.253Z,60.17
2018-04-24T19:45:36.504Z,60.48
2018-04-24T19:48:04.803Z,60.30
2018-04-24T19:50:33.879Z,60.19
2018-04-24T19:53:02.238Z,60.23
2018-04-24T19:55:30.525Z,60.66
2018-04-24T19:57:58.788Z,60.69
2018-04-24T20:00:27.821Z,60.69
2018-04-24T20:02:56.110Z,60.81
2018-04-24T20:05:25.222Z,60.56
2018-04-24T20:07:53.518Z,60.76
2018-04-24T20:10:21.809Z,60.76
2018-04-24T20:12:50.114Z,60.62
2018-04-24T20:15:19.627Z,60.76
2018-04-24T20:17:47.897Z,60.63
2018-04-24T20:20:16.197Z,60.58
2018-04-24T20:22:44.490Z,60.26
2018-04-24T20:25:12.920Z,60.34
2018-04-24T20:27:41.164Z,59.95
2018-04-24T20:30:09.454Z,60.06
2018-04-24T20:32:37.755Z,60.14
2018-04-24T20:35:06.936Z,60.09
2018-04-24T20:37:35.967Z,59.94
2018-04-24T20:40:04.256Z,59.88
2018-04-24T20:42:33.315Z,59.80
2018-04-24T20:45:01.577Z,60.24
2018-04-24T20:47:29.872Z,60.09
2018-04-24T20:49:58.140Z,59.96
2018-04-24T20:52:26.428Z,60.03
2018-04-24T20:54:54.697Z,60.14
2018-04-24T20:57:23.723Z,60.08
2018-04-24T20:59:53.242Z,60.29
2018-04-24T21:02:21.511Z,60.26
2018-04-24T21:04:49.826Z,60.47
2018-04-24T21:07:18.112Z,60.46
2018-04-24T21:09:46.675Z,60.47
2018-04-24T21:12:14.983Z,60.59
2018-04-24T21:14:44.111Z,60.83
2018-04-24T21:17:12.398Z,60.90
2018-04-24T21:19:41.447Z,61.28
2018-04-24T21:22:09.700Z,61.00
2018-04-24T21:24:37.953Z,61.46
2018-04-24T21:27:06.280Z,61.40
2018-04-24T21:29:34.837Z,61.66
2018-04-24T21:32:03.095Z,61.66
2018-04-24T21:34:31.396Z,61.96
2018-04-24T21:36:59.672Z,62.01
2018-04-24T21:39:28.045Z,62.26
2018-04-24T21:41:56.308Z,62.17
2018-04-24T21:44:25.341Z,62.11
2018-04-24T21:46:53.599Z,62.28
2018-04-24T21:49:22.652Z,62.39
2018-04-24T21:51:50.919Z,62.55
2018-04-24T21:54:19.955Z,62.59
2018-04-24T21:56:48.240Z,62.45
2018-04-24T21:59:16.545Z,62.64
2018-04-24T22:01:44.908Z,62.49
2018-04-24T22:04:13.120Z,62.45
2018-04-24T22:06:41.395Z,62.69
2018-04-24T22:09:09.666Z,62.84
2018-04-24T22:11:38.781Z,62.81
2018-04-24T22:14:07.890Z,62.80
2018-04-24T22:16:36.187Z,62.92
2018-04-24T22:19:04.614Z,62.80
2018-04-24T22:21:32.967Z,62.85
2018-04-24T22:24:01.255Z,62.87
2018-04-24T22:26:29.543Z,62.69
2018-04-24T22:28:58.560Z,62.53
2018-04-24T22:31:26.845Z,62.66
2018-04-24T22:33:55.143Z,62.45
2018-04-24T22:36:23.426Z,62.46
2018-04-24T22:38:51.709Z,62.61
2018-04-24T22:41:20.803Z,62.43
2018-04-24T22:43:49.867Z,62.42
2018-04-24T22:46:18.228Z,62.45
2018-04-24T22:48:46.519Z,62.12
2018-04-24T22:51:14.787Z,62.17
2018-04-24T22:53:43.123Z,62.04
2018-04-24T22:56:11.488Z,62.10
2018-04-24T22:58:39.755Z,62.03
2018-04-24T23:01:08.792Z,61.97
2018-04-24T23:03:37.081Z,61.87
2018-04-24T23:06:05.374Z,62.05
2018-04-24T23:08:33.628Z,61.81
2018-04-24T23:11:20.488Z,61.81
2018-04-24T23:14:06.389Z,61.76
2018-04-24T23:16:52.816Z,61.79
2018-04-24T23:19:38.541Z,61.69
2018-04-24T23:22:06.009Z,61.63
2018-04-24T23:24:34.287Z,61.56
2018-04-24T23:27:02.667Z,61.32
2018-04-24T23:29:30.962Z,61.33
2018-04-24T23:31:59.221Z,61.13
2018-04-24T23:34:28.251Z,60.81
2018-04-24T23:36:56.541Z,60.56
2018-04-24T23:39:25.659Z,60.71
2018-04-24T23:41:53.905Z,60.62
2018-04-24T23:44:22.169Z,60.79
2018-04-24T23:46:50.421Z,60.86
2018-04-24T23:49:18.687Z,61.07
2018-04-24T23:51:47.779Z,61.12
2018-04-24T23:54:16.052Z,61.44
2018-04-24T23:56:44.343Z,61.18
2018-04-24T23:59:12.625Z,61.43
